Time;durP1;ratioP1;P1;durP2;ratioP2;P2;SDS_P1;SDS_P2;PMS_P1;PMS_P2;Temp;Humidity;BMP_temperature;BMP_pressure;BME280_temperature;BME280_humidity;BME280_pressure;Samples;Min_cycle;Max_cycle;Signal;HPM_P1;HPM_P2
2022/01/16 00:07:49;;;;;;;3.33;2.17;;;6.30;59.00;;;4.45;65.55;102083.25;8231628;28;20043;-82
2022/01/16 00:12:11;;;;;;;6.22;1.95;;;6.40;59.00;;;4.32;65.67;102071.28;8227259;28;20047;-82
2022/01/16 00:16:33;;;;;;;3.90;1.65;;;6.30;59.00;;;4.46;65.75;102105.66;8225789;28;20030;-81
2022/01/16 00:20:55;;;;;;;4.93;1.60;;;6.30;59.00;;;4.50;65.79;102114.25;8241228;28;20041;-81
2022/01/16 00:25:19;;;;;;;4.13;1.85;;;6.20;58.90;;;4.50;65.73;102098.72;8243693;28;20046;-82
2022/01/16 00:29:40;;;;;;;4.82;1.45;;;6.10;58.90;;;4.40;65.61;102087.59;8239158;28;20045;-82
2022/01/16 00:34:02;;;;;;;4.55;1.60;;;6.20;59.00;;;4.36;65.49;102080.75;8256184;28;20526;-82
2022/01/16 00:38:24;;;;;;;3.13;1.48;;;6.20;58.90;;;4.35;65.44;102116.09;8271277;28;20136;-82
2022/01/16 00:42:46;;;;;;;3.38;1.23;;;6.00;58.80;;;4.38;65.77;102125.56;8270375;28;20121;-82
2022/01/16 00:47:07;;;;;;;6.30;1.90;;;6.00;58.90;;;4.32;65.75;102099.72;8248788;28;20578;-82
2022/01/16 00:51:29;;;;;;;3.70;1.48;;;6.10;58.90;;;4.36;65.55;102078.16;8255142;28;20049;-82
2022/01/16 00:55:51;;;;;;;5.07;1.80;;;6.10;59.00;;;4.35;65.78;102081.63;8283835;28;20121;-82
2022/01/16 01:00:13;;;;;;;2.33;1.52;;;6.10;59.00;;;4.31;65.71;102087.66;8276401;28;20113;-82
2022/01/16 01:04:34;;;;;;;5.85;2.22;;;6.40;59.10;;;4.27;65.67;102084.25;8237106;28;20125;-82
2022/01/16 01:08:56;;;;;;;2.33;1.60;;;6.00;58.90;;;4.25;65.62;102079.97;8269660;28;20574;-82
2022/01/16 01:13:32;;;;;;;3.45;1.80;;;5.90;58.80;;;4.16;65.83;102065.38;8276585;28;20145;-82
2022/01/16 01:17:54;;;;;;;4.68;2.47;;;5.90;58.90;;;4.25;65.54;102057.53;8262667;28;20579;-82
2022/01/16 01:22:15;;;;;;;4.03;1.70;;;6.00;59.00;;;4.24;65.62;102073.94;8272464;28;20128;-81
2022/01/16 01:26:46;;;;;;;4.35;1.65;;;6.00;59.10;;;4.24;65.52;102053.25;8267932;28;20126;-81
2022/01/16 01:31:07;;;;;;;3.15;1.60;;;5.90;59.00;;;4.22;65.76;102068.78;8277840;28;20042;-82
2022/01/16 01:35:36;;;;;;;3.92;1.85;;;5.90;59.00;;;4.22;65.70;102066.19;8279463;28;20403;-82
2022/01/16 01:39:58;;;;;;;5.43;1.70;;;5.90;59.00;;;4.16;65.64;102048.13;8257607;28;20105;-82
2022/01/16 01:53:41;;;;;;;4.32;1.83;;;5.70;58.70;;;3.91;65.73;101894.97;8264113;28;20105;-81
2022/01/16 01:58:03;;;;;;;5.85;1.60;;;5.70;58.70;;;3.99;65.55;101936.25;8258066;28;20097;-82
2022/01/16 02:02:30;;;;;;;4.25;1.48;;;5.70;58.70;;;3.82;65.49;101930.38;8281278;28;20134;-82
2022/01/16 02:06:52;;;;;;;2.97;1.42;;;5.60;58.70;;;3.76;65.21;101968.31;8280658;28;20117;-81
2022/01/16 02:11:16;;;;;;;2.92;1.25;;;5.60;58.70;;;3.77;65.33;101953.66;8250023;28;20658;-82
2022/01/16 02:38:48;;;;;;;2.65;1.35;;;5.40;58.90;;;3.70;65.48;101957.13;8273936;28;20033;-82
2022/01/16 02:43:10;;;;;;;4.82;1.85;;;5.40;58.90;;;3.67;65.19;101959.75;8279354;28;20230;-82
2022/01/16 02:47:33;;;;;;;4.88;2.05;;;5.40;58.90;;;3.65;65.39;101958.91;8247337;28;20128;-82
2022/01/16 02:52:04;;;;;;;5.10;2.00;;;5.40;58.90;;;3.66;65.42;101971.81;8255453;28;20038;-82
2022/01/16 02:56:26;;;;;;;3.40;2.00;;;5.30;58.90;;;3.55;65.30;101934.88;8238303;28;20100;-82
2022/01/16 03:00:47;;;;;;;3.97;1.70;;;5.30;58.80;;;3.39;65.38;101905.69;8257923;28;20459;-81
2022/01/16 03:05:09;;;;;;;3.22;1.60;;;5.20;58.80;;;3.48;65.60;101918.56;8257733;28;20121;-82
2022/01/16 03:09:54;;;;;;;2.60;1.85;;;5.30;58.80;;;3.46;65.37;101904.81;8268844;28;20120;-82
2022/01/16 03:14:21;;;;;;;5.35;1.90;;;5.20;58.70;;;3.41;65.24;101909.13;8249133;28;20128;-81
2022/01/16 03:23:24;;;;;;;5.97;2.10;;;5.20;58.70;;;3.37;65.34;101873.88;8255637;28;20030;-82
2022/01/16 03:27:46;;;;;;;4.97;2.17;;;4.90;58.60;;;3.26;65.51;101849.84;8270430;28;20124;-82
2022/01/16 03:32:16;;;;;;;5.70;2.10;;;5.10;58.70;;;3.28;65.22;101853.28;8268932;28;20064;-81
2022/01/16 03:36:37;;;;;;;5.30;2.05;;;5.00;58.70;;;3.07;65.39;101819.00;8278014;28;20109;-81
2022/01/16 03:41:00;;;;;;;7.28;2.30;;;5.00;58.70;;;3.21;65.35;101836.13;8269161;28;20478;-82
2022/01/16 03:45:22;;;;;;;4.90;2.08;;;4.90;58.70;;;3.01;65.51;101805.28;8273270;28;20113;-81
2022/01/16 03:49:44;;;;;;;2.53;1.80;;;4.80;58.80;;;3.15;65.28;101825.84;8257913;28;20567;-81
2022/01/16 03:54:08;;;;;;;5.60;1.88;;;4.80;58.70;;;3.00;65.15;101801.00;8236823;28;20049;-81
2022/01/16 03:58:30;;;;;;;4.03;2.08;;;4.80;58.70;;;2.99;65.30;101800.13;8260390;28;20113;-81
2022/01/16 04:02:53;;;;;;;6.15;2.70;;;4.80;58.70;;;3.02;65.40;101794.94;8242977;28;20113;-81
2022/01/16 04:07:22;;;;;;;3.42;2.25;;;4.60;58.50;;;2.77;65.26;101754.72;8274202;28;20040;-82
2022/01/16 04:11:50;;;;;;;5.03;1.83;;;4.70;58.60;;;2.84;65.10;101766.72;8266962;28;20038;-82
2022/01/16 04:16:12;;;;;;;3.58;1.55;;;4.60;58.70;;;2.91;65.12;101791.59;8276820;28;20108;-82
2022/01/16 04:20:34;;;;;;;4.20;2.20;;;4.60;58.70;;;2.75;65.42;101752.13;8253278;28;20030;-82
2022/01/16 04:24:55;;;;;;;2.95;2.15;;;4.60;58.60;;;2.61;65.10;101736.75;8247710;28;20547;-82
2022/01/16 04:29:17;;;;;;;6.20;2.28;;;4.60;58.70;;;2.78;65.73;101774.47;8267308;28;20129;-82
2022/01/16 04:33:39;;;;;;;7.30;1.85;;;4.50;58.70;;;2.64;65.50;101734.16;8260896;28;20530;-82
2022/01/16 04:38:01;;;;;;;4.15;2.30;;;4.40;58.70;;;2.72;65.19;101735.84;8266519;28;20184;-82
2022/01/16 04:47:03;;;;;;;4.93;2.17;;;4.40;58.60;;;2.61;65.02;101712.69;8258148;28;20125;-82
2022/01/16 04:51:27;;;;;;;8.57;2.42;;;4.30;58.60;;;2.56;65.16;101719.59;8285816;28;20092;-82
2022/01/16 04:55:49;;;;;;;6.15;2.20;;;4.20;58.60;;;2.53;65.45;101712.72;8282713;28;20125;-82
2022/01/16 05:00:14;;;;;;;4.43;1.92;;;4.50;58.80;;;2.50;65.06;101719.63;8284907;28;20130;-82
2022/01/16 05:04:37;;;;;;;3.53;2.45;;;4.50;58.90;;;2.50;65.34;101717.06;8247819;28;20142;-82
2022/01/16 05:08:59;;;;;;;7.65;2.25;;;4.20;58.80;;;2.47;65.11;101696.47;8260285;28;20159;-82
2022/01/16 05:16:34;;;;;;;8.30;2.10;;;4.20;58.80;;;2.36;65.24;101674.19;8262247;28;20034;-82
2022/01/16 05:18:09;;;;;;;5.35;1.83;;;4.20;58.80;;;2.45;65.27;101681.00;8284471;28;20129;-82
2022/01/16 05:22:31;;;;;;;5.30;1.83;;;4.20;58.80;;;2.42;65.22;101681.00;8265517;28;20567;-82
2022/01/16 05:26:53;;;;;;;9.07;2.85;;;4.10;58.90;;;2.45;65.22;101678.41;8246611;28;20125;-83
2022/01/16 05:31:15;;;;;;;2.78;1.92;;;4.20;58.90;;;2.41;65.20;101667.28;8248260;28;20124;-83
2022/01/16 05:35:36;;;;;;;8.82;3.38;;;4.10;58.70;;;2.30;65.17;101657.91;8262016;28;20117;-82
2022/01/16 05:39:58;;;;;;;5.70;2.20;;;4.00;58.60;;;2.23;65.49;101641.59;8229566;28;20120;-82
2022/01/16 05:44:20;;;;;;;7.13;2.55;;;4.10;58.70;;;2.30;65.21;101645.03;8250576;28;20121;-83
2022/01/16 05:48:41;;;;;;;5.18;2.05;;;4.10;58.80;;;2.29;65.37;101645.88;8234816;28;20121;-82
2022/01/16 05:53:05;;;;;;;6.35;2.10;;;4.10;58.80;;;2.25;65.41;101631.31;8252340;28;20407;-82
2022/01/16 05:57:26;;;;;;;4.70;2.40;;;4.10;58.80;;;2.21;65.35;101618.44;8276925;28;20117;-82
2022/01/16 06:01:48;;;;;;;3.78;2.08;;;4.10;58.80;;;2.31;65.70;101633.84;8235893;28;20042;-83
2022/01/16 06:06:10;;;;;;;6.53;2.60;;;4.00;58.80;;;2.29;65.57;101625.25;8259174;28;20049;-82
2022/01/16 06:10:31;;;;;;;12.52;2.65;;;4.00;58.70;;;2.32;65.17;101631.25;8248041;28;20040;-83
2022/01/16 06:14:53;;;;;;;6.47;1.92;;;4.00;58.70;;;2.29;65.46;101626.09;8257423;28;20121;-83
2022/01/16 06:19:15;;;;;;;3.33;1.90;;;4.20;58.90;;;2.22;65.45;101612.41;8243715;28;20121;-83
2022/01/16 06:23:36;;;;;;;2.00;1.52;;;4.10;58.90;;;2.24;65.18;101608.97;8253558;28;20117;-83
2022/01/16 06:27:58;;;;;;;4.65;2.33;;;4.10;58.90;;;2.28;65.48;101605.50;8249300;28;20482;-83
2022/01/16 06:32:20;;;;;;;6.63;2.03;;;4.10;58.90;;;2.31;65.73;101605.50;8247432;28;20029;-84
2022/01/16 06:36:42;;;;;;;2.92;1.92;;;3.90;58.90;;;2.37;65.54;101619.16;8217647;28;20031;-86
2022/01/16 06:41:03;;;;;;;7.97;2.28;;;4.10;58.90;;;2.24;65.65;101591.78;8241129;28;20037;-84
2022/01/16 06:45:25;;;;;;;4.28;2.00;;;4.10;58.90;;;2.29;65.55;101609.78;8229092;28;20041;-84
2022/01/16 06:49:47;;;;;;;5.88;2.50;;;4.10;58.90;;;2.37;65.30;101621.75;8234458;28;20530;-90
2022/01/16 06:54:09;;;;;;;7.22;2.30;;;4.20;59.00;;;2.25;65.47;101597.81;8238891;28;20038;-84
2022/01/16 06:58:30;;;;;;;7.80;2.38;;;4.20;58.90;;;2.37;65.30;101631.22;8209083;28;20121;-89
2022/01/16 07:02:52;;;;;;;8.00;2.47;;;4.20;58.80;;;2.36;65.52;101629.50;8241463;28;20038;-89
2022/01/16 07:07:14;;;;;;;4.70;2.25;;;4.10;58.80;;;2.22;65.67;101615.00;8223822;28;20130;-86
2022/01/16 07:11:35;;;;;;;4.45;2.40;;;4.10;58.70;;;2.31;65.72;101639.00;8215233;28;20117;-88
2022/01/16 07:15:57;;;;;;;6.50;2.53;;;4.10;58.70;;;2.29;65.58;101638.13;8235025;28;20122;-89
2022/01/16 07:20:19;;;;;;;5.28;2.65;;;4.10;58.80;;;2.30;65.68;101639.88;8230765;28;20030;-90
2022/01/16 07:24:41;;;;;;;4.82;2.92;;;4.10;58.80;;;1.96;65.61;101584.22;8242414;28;20414;-84
2022/01/16 07:29:05;;;;;;;9.45;2.88;;;4.10;58.90;;;2.24;65.75;101624.41;8224954;28;20045;-84
2022/01/16 07:33:27;;;;;;;6.05;2.70;;;4.10;58.90;;;2.16;65.37;101607.31;8224711;28;20038;-84
2022/01/16 07:37:49;;;;;;;9.10;3.17;;;4.10;58.90;;;2.25;65.40;101619.28;8230449;28;20527;-84
2022/01/16 07:42:11;;;;;;;6.38;3.40;;;4.10;58.90;;;2.18;65.60;101618.44;8230522;28;20046;-84
2022/01/16 07:46:33;;;;;;;6.07;2.92;;;4.20;58.90;;;2.26;65.60;101631.28;8223433;28;20038;-83
2022/01/16 07:50:55;;;;;;;8.45;3.13;;;4.10;58.80;;;2.24;65.65;101622.69;8232914;28;20145;-84
2022/01/16 07:55:18;;;;;;;6.25;3.03;;;4.00;58.80;;;2.26;65.56;101620.13;8230966;28;20053;-84
2022/01/16 07:59:40;;;;;;;7.45;2.90;;;4.10;58.90;;;2.29;65.42;101625.25;8232840;28;20506;-84
2022/01/16 08:04:02;;;;;;;8.90;3.85;;;4.10;58.90;;;2.37;65.59;101637.22;8240798;28;20062;-87
2022/01/16 08:08:23;;;;;;;6.25;4.03;;;4.20;59.00;;;2.29;65.63;101627.81;8256498;28;20040;-84
2022/01/16 08:12:45;;;;;;;6.75;3.95;;;4.20;59.00;;;2.30;65.32;101626.97;8250738;28;20034;-85
2022/01/16 08:17:07;;;;;;;6.68;4.43;;;4.20;59.00;;;2.31;65.83;101615.81;8235250;28;20040;-83
2022/01/16 08:21:28;;;;;;;8.45;4.43;;;4.20;59.00;;;2.21;65.79;101608.13;8250462;28;20038;-84
2022/01/16 08:25:51;;;;;;;6.65;3.92;;;4.10;59.00;;;2.29;65.66;101617.53;8221676;28;20040;-85
2022/01/16 08:30:13;;;;;;;8.23;4.88;;;4.20;59.10;;;2.47;65.63;101632.03;8229458;28;20044;-87
2022/01/16 08:34:35;;;;;;;7.03;5.05;;;4.20;59.10;;;2.42;65.71;101606.25;8280188;28;20044;-91
2022/01/16 08:38:57;;;;;;;8.27;5.85;;;4.30;59.10;;;2.33;65.87;101581.41;8242555;28;20044;-86
2022/01/16 08:43:19;;;;;;;11.40;6.50;;;4.30;59.10;;;2.35;65.83;101569.38;8244192;28;20042;-84
2022/01/16 08:47:42;;;;;;;8.23;6.25;;;4.30;59.20;;;2.50;65.62;101598.47;8246710;28;20034;-83
2022/01/16 08:52:04;;;;;;;8.73;6.22;;;4.30;59.20;;;2.47;65.83;101607.09;8245551;28;20049;-83
2022/01/16 08:56:25;;;;;;;12.38;7.40;;;4.30;59.20;;;2.42;65.70;101588.22;8238841;28;20036;-85
2022/01/16 09:00:48;;;;;;;12.60;6.80;;;4.30;59.30;;;2.44;65.59;101592.50;8264374;28;20513;-84
2022/01/16 09:05:11;;;;;;;13.65;6.80;;;4.30;59.30;;;2.51;65.81;101597.59;8244854;28;20043;-84
2022/01/16 09:09:33;;;;;;;13.23;7.57;;;4.30;59.40;;;2.49;65.93;101581.31;8226404;28;20038;-86
2022/01/16 09:13:55;;;;;;;13.57;7.95;;;4.30;59.40;;;2.48;66.24;101575.28;8227210;28;20038;-86
2022/01/16 09:18:18;;;;;;;15.48;7.43;;;4.30;59.40;;;2.49;65.72;101571.84;8237741;28;20046;-84
2022/01/16 09:22:43;;;;;;;11.27;7.68;;;4.30;59.40;;;2.50;65.84;101572.69;8253573;28;20037;-84
2022/01/16 09:27:05;;;;;;;11.68;7.65;;;4.40;59.50;;;2.51;65.84;101567.53;8211729;28;20406;-84
2022/01/16 09:31:27;;;;;;;14.10;7.80;;;4.40;59.50;;;2.56;66.11;101570.06;8253967;28;20042;-84
2022/01/16 09:35:48;;;;;;;10.85;7.55;;;4.40;59.50;;;2.62;65.93;101567.47;8245058;28;20039;-84
2022/01/16 09:40:14;;;;;;;14.02;7.88;;;4.40;59.50;;;2.66;65.81;101575.13;8235104;28;20036;-85
2022/01/16 09:44:38;;;;;;;12.20;7.97;;;4.80;59.70;;;2.78;66.10;101589.66;8237910;28;20041;-84
2022/01/16 09:49:00;;;;;;;12.23;8.18;;;4.50;59.60;;;2.74;66.03;101576.78;8231855;28;20046;-84
2022/01/16 09:53:22;;;;;;;12.80;8.10;;;4.60;59.60;;;2.75;65.84;101568.19;8238514;28;20038;-84
2022/01/16 09:57:45;;;;;;;14.43;8.25;;;4.60;59.60;;;2.80;66.22;101553.50;8257483;28;20065;-84
2022/01/16 10:02:06;;;;;;;15.95;9.20;;;4.60;59.60;;;2.84;65.58;101561.22;8232649;28;20048;-85
2022/01/16 10:06:28;;;;;;;14.40;9.27;;;4.70;59.60;;;2.94;65.83;101580.03;8252389;28;20042;-84
2022/01/16 10:10:50;;;;;;;12.77;8.23;;;4.70;59.60;;;2.81;65.96;101560.41;8227670;28;20045;-85
2022/01/16 10:15:24;;;;;;;13.00;8.15;;;4.80;59.70;;;2.94;66.31;101564.53;8229966;28;20050;-84
2022/01/16 10:20:18;;;;;;;14.90;9.00;;;4.80;59.70;;;2.94;66.15;101546.47;8233836;28;20490;-84
2022/01/16 10:24:41;;;;;;;15.18;8.85;;;4.80;59.70;;;3.05;66.06;101547.25;8243025;28;20046;-84
2022/01/16 10:29:03;;;;;;;17.15;8.65;;;4.90;59.70;;;3.08;66.23;101557.53;8241175;28;20042;-84
2022/01/16 10:33:32;;;;;;;14.13;8.70;;;4.70;59.60;;;3.00;66.27;101554.19;8252617;28;20032;-84
2022/01/16 10:37:56;;;;;;;14.70;8.95;;;4.90;59.70;;;3.04;66.26;101555.84;8235854;28;20034;-85
2022/01/16 10:42:17;;;;;;;14.30;8.57;;;4.90;59.70;;;3.15;66.13;101558.31;8245051;28;20056;-85
2022/01/16 10:46:39;;;;;;;15.55;8.85;;;4.90;59.70;;;3.20;65.98;101578.91;8243192;28;20038;-85
2022/01/16 10:51:01;;;;;;;14.07;8.77;;;4.90;59.70;;;3.17;66.10;101566.91;8264586;28;20038;-85
2022/01/16 10:55:40;;;;;;;13.60;9.00;;;5.00;59.70;;;3.10;65.98;101557.50;8229111;28;20035;-86
2022/01/16 11:00:21;;;;;;;13.15;7.85;;;4.90;60.20;;;3.20;66.06;101571.16;8240204;28;20938;-86
2022/01/16 11:04:43;;;;;;;14.30;8.73;;;5.00;59.80;;;3.16;66.07;101567.78;8227962;28;20042;-85
2022/01/16 11:09:05;;;;;;;14.30;8.38;;;5.00;59.90;;;3.23;66.17;101573.72;8248442;28;20649;-85
2022/01/16 11:13:32;;;;;;;14.68;9.45;;;5.00;59.80;;;3.15;66.01;101562.63;8245627;28;20043;-85
2022/01/16 11:17:54;;;;;;;16.23;8.60;;;5.00;59.90;;;3.23;65.99;101571.13;8234724;28;20038;-86
2022/01/16 11:22:22;;;;;;;13.35;7.97;;;5.00;59.90;;;3.30;66.52;101577.94;8223948;28;20075;-85
2022/01/16 11:26:44;;;;;;;15.48;7.88;;;5.10;60.00;;;3.09;65.94;101533.44;8252124;28;20491;-88
2022/01/16 11:31:09;;;;;;;11.18;7.72;;;5.10;60.00;;;3.34;66.49;101574.44;8251336;28;20544;-83
2022/01/16 11:35:34;;;;;;;11.18;6.78;;;5.10;60.00;;;3.33;66.15;101555.53;8238029;28;20709;-88
2022/01/16 11:40:21;;;;;;;11.43;7.47;;;5.10;60.00;;;3.26;66.19;101548.72;8238978;28;20649;-83
2022/01/16 11:44:53;;;;;;;13.35;6.45;;;5.20;60.20;;;3.41;66.37;101560.59;8251482;28;20050;-83
2022/01/16 11:49:19;;;;;;;11.48;7.55;;;5.20;60.20;;;3.25;66.29;101544.44;8252007;28;20048;-83
2022/01/16 11:54:05;;;;;;;9.70;6.55;;;5.30;60.30;;;3.51;66.31;101577.69;8239319;28;20040;-83
2022/01/16 11:58:26;;;;;;;9.82;6.70;;;5.30;60.40;;;3.42;66.33;101562.28;8251883;28;20038;-84
2022/01/16 12:02:50;;;;;;;9.52;6.35;;;5.30;60.30;;;3.50;66.33;101570.81;8239320;28;20048;-85
2022/01/16 12:07:17;;;;;;;9.20;5.55;;;5.30;60.30;;;3.60;66.53;101563.81;8248639;28;20549;-84
2022/01/16 12:11:39;;;;;;;7.85;6.32;;;5.40;60.50;;;3.65;66.40;101556.00;8253811;28;20037;-84
2022/01/16 12:16:40;;;;;;;10.80;6.85;;;5.40;60.50;;;3.70;66.41;101556.78;8237396;28;20849;-84
2022/01/16 12:21:31;;;;;;;10.93;6.80;;;5.40;60.50;;;3.67;66.46;101559.41;8258845;28;20038;-89
2022/01/16 12:25:56;;;;;;;13.45;7.53;;;5.50;60.70;;;3.77;66.21;101566.16;8240358;28;20034;-86
2022/01/16 12:30:24;;;;;;;11.00;7.18;;;5.60;60.60;;;3.84;66.35;101570.38;8260556;28;20068;-87
2022/01/16 12:34:45;;;;;;;12.13;7.35;;;5.50;60.60;;;3.75;66.63;101545.53;8279585;28;20048;-87
2022/01/16 12:39:11;;;;;;;9.30;6.35;;;5.60;60.60;;;3.85;66.32;101547.97;8260567;28;20037;-84
2022/01/16 12:43:41;;;;;;;8.90;6.87;;;5.60;60.60;;;3.84;66.37;101541.13;8242044;28;20071;-87
2022/01/16 12:48:04;;;;;;;10.43;7.18;;;5.70;60.80;;;3.91;66.45;101540.97;8236791;28;21187;-87
2022/01/16 12:52:27;;;;;;;9.55;6.60;;;5.80;60.90;;;4.06;66.49;101554.56;8255406;28;20034;-88
2022/01/16 12:57:02;;;;;;;10.35;7.32;;;5.80;61.00;;;4.04;66.21;101548.56;8242516;28;20053;-90
2022/01/16 13:01:25;;;;;;;9.85;6.72;;;5.80;61.00;;;4.11;66.51;101543.28;8257385;28;20499;-84
2022/01/16 13:05:47;;;;;;;12.18;7.13;;;5.90;61.00;;;4.18;66.42;101544.03;8235965;28;20048;-85
2022/01/16 13:10:09;;;;;;;11.70;7.53;;;5.90;61.10;;;4.13;66.87;101519.97;8250268;28;20042;-84
2022/01/16 13:14:35;;;;;;;12.85;7.72;;;5.90;61.00;;;4.05;66.39;101503.75;8232416;28;20038;-85
2022/01/16 13:19:07;;;;;;;;;;;6.00;61.20;;;4.29;66.45;101533.53;8251353;28;20050;-85
2022/01/16 13:23:28;;;;;;;9.95;6.45;;;6.10;61.30;;;4.27;66.44;101523.22;8261755;28;20294;-85
2022/01/16 13:27:50;;;;;;;10.02;6.90;;;6.00;61.00;;;4.28;66.62;101516.31;8246384;28;20042;-89
2022/01/16 13:32:17;;;;;;;10.27;7.32;;;6.30;61.50;;;4.34;66.52;101519.63;8244198;28;20036;-85
2022/01/16 13:36:54;;;;;;;11.32;7.30;;;6.10;61.40;;;4.28;66.63;101499.06;8244543;28;20042;-86
2022/01/16 13:41:16;;;;;;;10.25;7.03;;;6.20;61.60;;;4.36;66.57;101509.28;8249477;28;20048;-85
2022/01/16 13:45:47;;;;;;;11.27;6.68;;;6.20;61.50;;;4.32;66.47;101505.91;8238000;28;20035;-85
2022/01/16 13:50:12;;;;;;;9.32;6.45;;;6.20;61.50;;;4.46;66.50;101515.16;8232885;28;20037;-85
2022/01/16 13:54:34;;;;;;;10.70;6.95;;;6.30;61.50;;;4.59;66.57;101539.91;8215438;28;20045;-85
2022/01/16 13:58:57;;;;;;;11.30;7.32;;;6.30;61.50;;;4.50;66.47;101514.22;8247094;28;20038;-86
2022/01/16 14:03:23;;;;;;;13.10;7.55;;;6.40;61.50;;;4.53;66.55;101524.50;8250054;28;20395;-85
2022/01/16 14:07:45;;;;;;;12.85;7.28;;;6.40;61.50;;;4.52;66.42;101504.72;8248396;28;20041;-85
2022/01/16 14:12:07;;;;;;;12.15;7.65;;;6.40;61.50;;;4.54;66.49;101505.53;8247945;28;20077;-85
2022/01/16 14:17:02;;;;;;;12.48;8.60;;;6.50;61.60;;;4.75;66.70;101525.84;8247855;28;20352;-85
2022/01/16 14:21:59;;;;;;;11.65;7.55;;;6.50;61.80;;;4.77;66.43;101528.41;8256843;28;20049;-86
2022/01/16 14:26:13;;;;;;;12.10;7.30;;;6.60;61.60;;;4.74;66.45;101515.53;8229800;28;20816;-85
2022/01/16 14:30:35;;;;;;;12.88;7.78;;;6.60;61.60;;;4.83;66.50;101531.75;8225661;28;20040;-85
2022/01/16 14:34:58;;;;;;;14.15;8.43;;;6.50;61.60;;;4.82;66.54;101527.44;8215098;28;20056;-84
2022/01/16 14:39:22;;;;;;;11.50;7.70;;;7.00;61.90;;;4.83;66.71;101533.44;8239872;28;20042;-85
2022/01/16 14:44:05;;;;;;;14.15;8.57;;;6.60;61.50;;;4.85;66.47;101526.53;8228748;28;20038;-85
2022/01/16 14:48:26;;;;;;;13.30;8.10;;;6.70;61.50;;;4.80;66.77;101507.63;8244651;28;20034;-85
2022/01/16 14:52:48;;;;;;;13.90;9.23;;;6.70;61.40;;;4.97;66.82;101546.13;8256340;28;20042;-85
2022/01/16 14:57:09;;;;;;;14.05;9.23;;;6.70;61.50;;;4.92;66.52;101540.22;8254006;28;20068;-81
2022/01/16 15:01:32;;;;;;;15.07;9.65;;;6.70;61.60;;;5.04;66.49;101560.66;8262003;28;20026;-87
2022/01/16 15:05:54;;;;;;;11.90;8.68;;;6.60;61.50;;;4.99;66.81;101545.22;8241065;28;20049;-87
2022/01/16 15:10:16;;;;;;;12.90;8.73;;;6.80;61.60;;;5.00;66.65;101533.16;8260008;28;20048;-87
2022/01/16 15:14:39;;;;;;;10.63;8.15;;;6.80;61.60;;;5.05;66.88;101545.13;8253403;28;20040;-87
2022/01/16 15:19:15;;;;;;;13.90;9.15;;;6.80;61.60;;;5.09;66.64;101559.69;8261399;28;20038;-86
2022/01/16 15:23:37;;;;;;;14.50;10.45;;;6.80;61.50;;;5.09;66.52;101557.13;8239110;28;20049;-86
2022/01/16 15:27:58;;;;;;;15.10;8.70;;;6.90;61.60;;;4.86;66.47;101513.56;8244195;28;20420;-87
2022/01/16 15:32:20;;;;;;;12.20;8.63;;;6.90;61.60;;;5.15;66.90;101563.91;8247894;28;20038;-87
2022/01/16 15:36:42;;;;;;;18.55;11.10;;;6.90;61.60;;;5.10;67.05;101552.78;8252803;28;20038;-87
2022/01/16 15:41:04;;;;;;;17.75;9.45;;;6.90;61.90;;;5.16;66.83;101557.00;8231048;28;20041;-87
2022/01/16 15:45:26;;;;;;;15.93;10.40;;;6.90;61.60;;;5.19;66.97;101555.22;8245732;28;20044;-87
2022/01/16 15:49:47;;;;;;;15.25;10.07;;;6.90;61.70;;;5.19;67.06;101555.22;8256884;28;20050;-87
2022/01/16 15:54:09;;;;;;;15.80;10.25;;;7.00;61.90;;;5.14;66.89;101541.50;8234472;28;20695;-87
2022/01/16 15:58:31;;;;;;;15.15;9.50;;;7.00;61.80;;;5.27;66.48;101574.03;8232233;28;20038;-87
2022/01/16 16:02:54;;;;;;;15.88;9.55;;;7.00;61.90;;;5.29;66.60;101574.00;8251652;28;20033;-88
2022/01/16 16:07:16;;;;;;;14.73;8.68;;;7.00;61.80;;;5.23;66.58;101562.03;8239893;28;20053;-87
2022/01/16 16:11:38;;;;;;;13.80;9.70;;;7.00;61.80;;;5.28;66.89;101567.97;8256230;28;20041;-88
2022/01/16 16:15:59;;;;;;;13.63;9.52;;;7.10;62.00;;;5.32;66.75;101572.22;8224396;28;20061;-88
2022/01/16 16:20:24;;;;;;;13.73;9.55;;;7.10;61.90;;;5.36;66.98;101577.34;8256044;28;20063;-88
2022/01/16 16:24:46;;;;;;;18.03;10.90;;;7.10;62.20;;;5.33;66.58;101560.13;8274086;28;20719;-87
2022/01/16 16:29:08;;;;;;;18.73;9.77;;;7.10;62.10;;;5.30;66.97;101562.78;8254118;28;20466;-87
2022/01/16 16:33:30;;;;;;;16.35;10.73;;;7.10;62.10;;;5.41;66.99;101568.59;8225483;28;20054;-91
2022/01/16 16:37:52;;;;;;;16.27;10.60;;;7.20;62.20;;;5.47;66.76;101575.38;8219972;28;20806;-87
2022/01/16 16:42:15;;;;;;;17.05;11.35;;;7.20;62.20;;;5.41;66.51;101563.41;8233746;28;20046;-87
2022/01/16 16:46:37;;;;;;;17.38;10.50;;;7.20;62.20;;;5.51;66.62;101574.44;8238081;28;20068;-88
2022/01/16 16:51:00;;;;;;;18.25;10.75;;;7.20;62.20;;;5.53;66.67;101586.44;8251700;28;20049;-87
2022/01/16 16:55:22;;;;;;;19.30;11.63;;;7.20;62.20;;;5.55;66.86;101568.31;8248249;28;20051;-88
2022/01/16 16:59:45;;;;;;;17.83;10.43;;;7.20;62.30;;;5.51;66.79;101564.09;8262253;28;20034;-87
2022/01/16 17:04:07;;;;;;;15.70;11.00;;;7.20;62.30;;;5.41;66.94;101545.28;8245828;28;20075;-88
2022/01/16 17:08:29;;;;;;;16.77;11.88;;;7.30;62.40;;;5.59;67.15;101575.13;8260743;28;20438;-87
2022/01/16 17:12:53;;;;;;;17.08;10.82;;;7.30;62.40;;;5.52;66.58;101565.78;8234822;28;20075;-87
2022/01/16 17:17:16;;;;;;;16.83;10.68;;;7.30;62.30;;;5.63;66.75;101571.59;8268966;28;20052;-87
2022/01/16 17:21:38;;;;;;;14.82;9.90;;;7.30;62.30;;;5.69;66.72;101589.59;8256865;28;20121;-87
2022/01/16 17:25:59;;;;;;;15.23;10.18;;;7.40;62.40;;;5.55;66.94;101557.94;8256833;28;20042;-88
2022/01/16 17:30:23;;;;;;;14.63;9.98;;;7.40;62.30;;;5.72;66.80;101576.56;8260762;28;20048;-87
2022/01/16 17:34:45;;;;;;;15.75;10.23;;;7.30;62.20;;;5.79;66.82;101594.59;8239583;28;20638;-87
2022/01/16 17:39:07;;;;;;;15.18;9.85;;;7.40;62.30;;;5.65;66.62;101569.81;8245752;28;20031;-87
2022/01/16 17:43:29;;;;;;;16.15;10.02;;;7.50;62.30;;;5.61;67.10;101546.59;8236699;28;20034;-87
2022/01/16 17:47:51;;;;;;;16.35;9.65;;;7.50;62.20;;;5.84;66.91;101587.56;8258751;28;20048;-88
2022/01/16 17:52:13;;;;;;;14.57;9.52;;;7.60;62.30;;;5.82;66.73;101572.03;8228258;28;20045;-87
2022/01/16 17:56:36;;;;;;;16.30;10.45;;;7.40;62.10;;;5.85;67.21;101578.91;8222816;28;20510;-87
2022/01/16 18:00:57;;;;;;;15.20;10.30;;;7.70;62.30;;;5.86;67.26;101568.50;8255848;28;20050;-87
2022/01/16 18:05:19;;;;;;;15.48;10.50;;;7.70;62.30;;;5.94;66.74;101582.19;8263713;28;20456;-87
2022/01/16 18:09:41;;;;;;;18.17;10.18;;;7.70;62.30;;;5.95;66.91;101576.09;8229646;28;20038;-87
2022/01/16 18:14:04;;;;;;;17.17;10.60;;;7.70;62.20;;;6.11;67.04;101593.91;8226014;28;20064;-87
2022/01/16 18:18:31;;;;;;;15.63;9.70;;;7.80;62.30;;;6.04;66.81;101562.06;8233046;28;20034;-87
2022/01/16 18:22:52;;;;;;;15.98;10.10;;;7.80;62.20;;;6.18;67.07;101582.50;8230688;28;20038;-86
2022/01/16 18:27:15;;;;;;;14.77;8.93;;;7.80;62.10;;;6.20;66.87;101583.31;8239060;28;20079;-86
2022/01/16 18:31:38;;;;;;;16.83;11.00;;;7.90;62.20;;;6.12;66.72;101573.13;8256211;28;20033;-86
2022/01/16 18:36:00;;;;;;;18.00;10.00;;;7.90;62.20;;;6.23;66.89;101593.63;8215175;28;20042;-87
2022/01/16 18:40:23;;;;;;;17.15;10.48;;;7.90;62.20;;;6.14;66.65;101570.50;8275558;28;20044;-87
2022/01/16 18:44:47;;;;;;;18.17;10.60;;;8.00;62.30;;;6.30;66.67;101599.53;8273346;28;20041;-87
2022/01/16 18:49:09;;;;;;;15.60;9.90;;;7.90;62.30;;;6.25;66.99;101581.47;8258496;28;20064;-86
2022/01/16 18:53:31;;;;;;;15.80;10.13;;;7.90;63.00;;;6.24;67.29;101561.63;8221624;28;20044;-88
2022/01/16 18:57:58;;;;;;;15.25;10.02;;;8.00;62.40;;;6.36;67.43;101573.44;8226701;28;20034;-87
2022/01/16 19:02:20;;;;;;;19.75;10.88;;;8.00;62.50;;;6.31;67.15;101573.53;8237941;28;20330;-87
2022/01/16 19:06:42;;;;;;;19.10;10.88;;;8.00;62.50;;;6.40;67.20;101582.88;8256088;28;20038;-88
2022/01/16 19:11:04;;;;;;;17.27;10.60;;;8.10;62.60;;;6.46;66.49;101594.84;8221681;28;20431;-87
2022/01/16 19:15:26;;;;;;;18.85;10.60;;;8.10;62.50;;;6.35;66.99;101564.81;8245490;28;20268;-87
2022/01/16 19:19:48;;;;;;;19.52;11.35;;;8.10;62.60;;;6.44;67.16;101579.28;8261561;28;20041;-87
2022/01/16 19:24:10;;;;;;;19.98;11.15;;;8.10;62.60;;;6.48;67.23;101578.34;8249435;28;20117;-91